Oysterville, Washington
Current Conditions -  °F | °C
As of 4:55 AM on Friday 24 Oct 2014 (Local Time) from KAST Reporting Station
Clear Clear  
Wind Chill: 47°   Ceiling: Unl
Heat Index: 49°   Visibility: 10mi
Dew Point: 47°   Wind: 5mph
Humidity: 93%   Direction: 80°E
Pressure: 29.97"   Gusts: NA
Location:  46.55°N, 124.03°W
Report Text: KAST 241155Z AUTO 08004KT 10SM CLR 09/08 A2997 RMK AO2 SLP147 60000 70084 T00940083 10106 20094 58008
Loading
Personal Weather Stations






























Interactive Weather Map
Tropical Storm Tracking
New forecast layout! Learn more

10-Day Weather Forecast

Advertisements
Track Severe Weather on mobile